Adairo, Ohio
Current Conditions -  °F | °C
As of 11:32 AM on Saturday 20 Dec 2014 (Local Time) from KMFD Reporting Station
Haze Haze  
Wind Chill: 28°   Ceiling: 2100
Heat Index: 28°   Visibility: 1.7mi
Dew Point: 22°   Wind: 0mph
Humidity: 78%   Direction: NA
Pressure: 30.26"   Gusts: NA
Location:  40.9484°N, 82.5121°W
Report Text: KMFD 201632Z 00000KT 1 3/4SM HZ BKN021 OVC027 M02/M06 A3026 RMK AO2 T10221056
Loading
Personal Weather Stations






























Interactive Weather Map New forecast layout! Learn more

10-Day Weather Forecast

Advertisements
Track Severe Weather on mobile